Time;durP1;ratioP1;P1;durP2;ratioP2;P2;SDS_P1;SDS_P2;PMS_P1;PMS_P2;Temp;Humidity;BMP_temperature;BMP_pressure;BME280_temperature;BME280_humidity;BME280_pressure;Samples;Min_cycle;Max_cycle;Signal;HPM_P1;HPM_P2
2022/10/16 00:01:38;;;;;;;;;2.25;1.00;;;;;16.76;73.01;100885.56;5138937;27;45421;-79
2022/10/16 00:04:03;;;;;;;;;0.00;0.00;;;;;16.76;73.16;100885.56;5138531;27;55888;-79
2022/10/16 00:06:30;;;;;;;;;0.75;0.75;;;;;16.76;73.14;100882.94;5120487;27;45308;-79
2022/10/16 00:08:56;;;;;;;;;1.00;1.00;;;;;16.73;73.38;100879.63;5120508;27;45409;-79
2022/10/16 00:11:24;;;;;;;;;1.00;1.00;;;;;16.71;73.37;100886.75;5119724;27;48716;-80
2022/10/16 00:13:51;;;;;;;;;2.25;1.50;;;;;16.70;73.40;100885.91;5138685;27;45336;-79
2022/10/16 00:16:17;;;;;;;;;1.75;1.00;;;;;16.71;73.46;100887.59;5120359;27;45383;-80
2022/10/16 00:18:43;;;;;;;;;0.50;0.00;;;;;16.70;73.60;100914.81;5120336;27;45551;-79
2022/10/16 00:21:17;;;;;;;;;0.00;0.00;;;;;16.67;73.95;100917.59;5138437;27;46893;-79
2022/10/16 00:23:42;;;;;;;;;0.75;0.75;;;;;16.69;74.06;100917.53;5138588;27;47045;-80
2022/10/16 00:26:10;;;;;;;;;1.00;1.00;;;;;16.70;73.57;100904.31;5102555;27;45225;-79
2022/10/16 00:28:36;;;;;;;;;0.00;0.00;;;;;16.72;73.93;100894.56;5120329;27;45350;-80
2022/10/16 00:31:07;;;;;;;;;0.00;0.00;;;;;16.71;73.89;100898.09;5138669;27;46365;-80
2022/10/16 00:33:33;;;;;;;;;1.00;1.00;;;;;16.69;74.05;100902.59;5138215;27;45606;-79
2022/10/16 00:35:59;;;;;;;;;1.00;1.00;;;;;16.72;73.96;100896.34;5120034;27;45395;-80
2022/10/16 00:38:24;;;;;;;;;3.00;0.50;;;;;16.74;73.91;100907.63;5119626;27;45396;-80
2022/10/16 00:40:50;;;;;;;;;1.25;0.00;;;;;16.76;73.63;100905.75;5137536;27;54983;-79
2022/10/16 00:43:34;;;;;;;;;1.00;1.00;;;;;16.76;73.76;100911.03;5119076;27;71551;-80
2022/10/16 00:46:00;;;;;;;;;1.00;1.00;;;;;16.76;74.08;100905.75;5138581;27;45405;-79
2022/10/16 00:48:26;;;;;;;;;1.00;0.00;;;;;16.73;73.83;100898.03;5120008;27;45305;-80
2022/10/16 00:50:52;;;;;;;;;0.50;0.50;;;;;16.75;73.85;100911.94;5118617;27;72828;-79
2022/10/16 00:53:17;;;;;;;;;1.00;1.00;;;;;16.76;73.64;100929.44;5118744;27;73124;-79
2022/10/16 00:55:43;;;;;;;;;1.00;0.00;;;;;16.77;73.57;100931.97;5136962;27;64870;-79
2022/10/16 00:58:09;;;;;;;;;1.00;0.00;;;;;16.79;73.76;100938.00;5118382;27;66691;-79
2022/10/16 01:00:34;;;;;;;;;0.00;0.00;;;;;16.81;73.57;100940.56;5119522;27;46705;-80
2022/10/16 01:03:02;;;;;;;;;0.50;0.50;;;;;16.80;73.24;100936.22;5136970;27;72794;-79
2022/10/16 01:05:34;;;;;;;;;0.25;0.00;;;;;16.79;73.62;100940.63;5138228;27;45350;-79
2022/10/16 01:08:16;;;;;;;;;1.75;0.25;;;;;16.77;73.55;100939.88;5119547;27;45396;-79
2022/10/16 01:10:57;;;;;;;;;0.00;0.00;;;;;16.76;73.33;100937.31;5119170;27;46483;-80
2022/10/16 01:13:29;;;;;;;;;1.00;0.00;;;;;16.77;73.53;100937.22;5137881;27;45286;-80
2022/10/16 01:16:00;;;;;;;;;1.00;1.00;;;;;16.78;73.50;100946.81;5102276;27;45390;-80
2022/10/16 01:18:29;;;;;;;;;0.00;0.00;;;;;16.78;73.76;100948.59;5119545;27;45374;-79
2022/10/16 01:21:00;;;;;;;;;1.00;1.00;;;;;16.78;73.66;100951.22;5137581;27;46242;-79
2022/10/16 01:23:34;;;;;;;;;1.75;0.00;;;;;16.76;73.24;100953.91;5101697;27;45594;-80
2022/10/16 01:26:43;;;;;;;;;1.25;1.00;;;;;16.78;73.23;100952.06;5138026;27;45454;-79
2022/10/16 01:29:15;;;;;;;;;0.50;0.00;;;;;16.77;73.13;100939.88;5119138;27;45550;-79
2022/10/16 01:31:41;;;;;;;;;0.50;0.50;;;;;16.76;73.21;100946.03;5119003;27;47373;-79
2022/10/16 01:34:14;;;;;;;;;1.50;0.00;;;;;16.78;73.23;100951.22;5117934;27;74153;-79
2022/10/16 01:36:45;;;;;;;;;0.00;0.00;;;;;16.78;73.35;100940.72;5119003;27;45555;-79
2022/10/16 01:39:11;;;;;;;;;1.00;0.00;;;;;16.79;73.10;100950.28;5118953;27;45379;-80
2022/10/16 01:41:45;;;;;;;;;0.75;0.00;;;;;16.79;73.05;100938.00;5119056;27;46146;-79
2022/10/16 01:44:18;;;;;;;;;0.00;0.00;;;;;16.80;72.85;100928.31;5119134;27;45356;-79
2022/10/16 01:46:46;;;;;;;;;0.00;0.00;;;;;16.77;73.07;100939.88;5119104;27;45349;-80
2022/10/16 01:49:13;;;;;;;;;1.25;0.00;;;;;16.74;72.82;100936.53;5119100;27;45472;-79
2022/10/16 01:51:38;;;;;;;;;0.00;0.00;;;;;16.70;72.81;100938.47;5137378;27;45505;-79
2022/10/16 01:54:08;;;;;;;;;0.00;0.00;;;;;16.71;72.83;100941.94;5136898;27;45437;-78
2022/10/16 01:56:34;;;;;;;;;0.00;0.00;;;;;16.71;72.95;100936.69;5119062;27;45361;-80
2022/10/16 01:59:06;;;;;;;;;0.00;0.00;;;;;16.70;72.74;100946.38;5118965;27;45319;-79
2022/10/16 02:01:35;;;;;;;;;0.00;0.00;;;;;16.71;73.24;100934.91;5137232;27;45490;-80
2022/10/16 02:04:07;;;;;;;;;2.50;0.00;;;;;16.73;73.01;100937.47;5137344;27;45362;-79
2022/10/16 02:06:32;;;;;;;;;0.00;0.00;;;;;16.70;72.88;100935.84;5118614;27;45424;-79
2022/10/16 02:08:58;;;;;;;;;0.00;0.00;;;;;16.71;72.87;100944.56;5119195;27;45363;-79
2022/10/16 02:11:24;;;;;;;;;1.00;0.00;;;;;16.71;73.08;100939.31;5139941;27;69459;-80
2022/10/16 02:14:00;;;;;;;;;0.00;0.00;;;;;16.70;72.89;100948.16;5122111;27;45461;-80
2022/10/16 02:16:37;;;;;;;;;0.00;0.00;;;;;16.65;72.84;100941.31;5122370;27;45425;-79
2022/10/16 02:19:04;;;;;;;;;0.00;0.00;;;;;16.65;72.88;100946.59;5122337;27;45417;-79
2022/10/16 02:21:35;;;;;;;;;0.00;0.00;;;;;16.64;72.72;100947.53;5121437;27;46187;-79
2022/10/16 02:24:11;;;;;;;;;0.00;0.00;;;;;16.63;72.98;100948.44;5122077;27;46329;-80
2022/10/16 02:26:51;;;;;;;;;1.00;0.00;;;;;16.63;72.86;100958.09;5122192;27;45426;-80
2022/10/16 02:29:21;;;;;;;;;1.00;0.00;;;;;16.62;73.09;100941.50;5122326;27;45380;-79
2022/10/16 02:31:50;;;;;;;;;0.00;0.00;;;;;16.62;73.15;100935.38;5121788;27;45593;-79
2022/10/16 02:34:18;;;;;;;;;0.00;0.00;;;;;16.63;73.10;100939.72;5140271;27;45598;-79
2022/10/16 02:36:44;;;;;;;;;0.00;0.00;;;;;16.61;73.22;100937.16;5121299;27;45504;-79
2022/10/16 02:39:10;;;;;;;;;1.50;0.00;;;;;16.64;72.85;100942.28;5121858;27;45481;-79
2022/10/16 02:41:36;;;;;;;;;0.00;0.00;;;;;16.64;72.80;100949.28;5120768;27;71456;-79
2022/10/16 02:44:01;;;;;;;;;0.00;0.00;;;;;16.62;72.85;100951.13;5121767;27;45445;-79
2022/10/16 02:46:26;;;;;;;;;0.00;0.00;;;;;16.61;72.50;100957.34;5140016;27;47793;-79
2022/10/16 02:48:52;;;;;;;;;0.00;0.00;;;;;16.59;72.63;100957.41;5140084;27;45352;-79
2022/10/16 02:51:17;;;;;;;;;0.00;0.00;;;;;16.59;72.39;100961.81;5139073;27;66493;-79
2022/10/16 02:53:42;;;;;;;;;0.00;0.00;;;;;16.58;72.11;100966.22;5120503;27;73377;-80
2022/10/16 02:56:08;;;;;;;;;1.00;0.00;;;;;16.57;72.39;100966.31;5139037;27;68448;-79
2022/10/16 02:58:33;;;;;;;;;0.75;0.00;;;;;16.56;72.17;100968.06;5139374;27;65491;-79
2022/10/16 03:00:58;;;;;;;;;1.00;0.00;;;;;16.58;71.93;100971.47;5138775;27;76806;-79
2022/10/16 03:03:23;;;;;;;;;0.00;0.00;;;;;16.58;72.26;100976.72;5140001;27;45279;-79
2022/10/16 03:05:49;;;;;;;;;0.00;0.00;;;;;16.59;72.19;100978.44;5139132;27;56717;-79
2022/10/16 03:08:14;;;;;;;;;0.00;0.00;;;;;16.58;72.51;100974.09;5139977;27;45374;-79
2022/10/16 03:10:40;;;;;;;;;0.00;0.00;;;;;16.57;71.94;100977.66;5139805;27;46288;-80
2022/10/16 03:13:05;;;;;;;;;1.00;0.00;;;;;16.59;72.10;100967.09;5139900;27;45294;-80
2022/10/16 03:15:30;;;;;;;;;0.00;0.00;;;;;16.60;72.12;100969.63;5139762;27;45335;-79
2022/10/16 03:17:59;;;;;;;;;1.00;0.00;;;;;16.59;72.09;100973.19;5139679;27;45368;-79
2022/10/16 03:20:25;;;;;;;;;0.00;0.00;;;;;16.57;71.90;100964.53;5120451;27;47416;-79
2022/10/16 03:22:50;;;;;;;;;0.00;0.00;;;;;16.60;72.16;100960.88;5139768;27;45444;-79
2022/10/16 03:25:16;;;;;;;;;0.00;0.00;;;;;16.59;71.73;100959.19;5139848;27;45381;-80
2022/10/16 03:27:41;;;;;;;;;1.75;0.00;;;;;16.59;71.77;100956.56;5139607;27;45449;-79
2022/10/16 03:30:07;;;;;;;;;0.00;0.00;;;;;16.57;71.73;100953.19;5138593;27;71533;-79
2022/10/16 03:32:33;;;;;;;;;0.00;0.00;;;;;16.58;71.44;100954.84;5139510;27;45366;-79
2022/10/16 03:34:58;;;;;;;;;0.00;0.00;;;;;16.59;71.40;100962.66;5139226;27;45752;-79
2022/10/16 03:37:24;;;;;;;;;0.50;0.00;;;;;16.57;71.32;100975.03;5120590;27;45449;-79
2022/10/16 03:39:49;;;;;;;;;0.00;0.00;;;;;16.57;71.07;100969.78;5139414;27;46342;-79
2022/10/16 03:42:14;;;;;;;;;0.00;0.00;;;;;16.55;71.08;100950.63;5138342;27;71270;-79
2022/10/16 03:44:40;;;;;;;;;1.00;0.00;;;;;16.55;71.22;100958.50;5139534;27;45268;-79
2022/10/16 03:47:05;;;;;;;;;0.00;0.00;;;;;16.53;71.11;100975.25;5138619;27;67210;-80
2022/10/16 03:49:30;;;;;;;;;0.00;0.00;;;;;16.55;71.39;100974.28;5138258;27;60964;-80
2022/10/16 03:51:56;;;;;;;;;0.00;0.00;;;;;16.57;71.13;100969.78;5139219;27;45366;-79
2022/10/16 03:54:22;;;;;;;;;0.00;0.00;;;;;16.55;70.67;100969.00;5138294;27;67224;-79
2022/10/16 03:56:47;;;;;;;;;0.00;0.00;;;;;16.52;71.14;100971.78;5120604;27;45277;-80
2022/10/16 03:59:13;;;;;;;;;0.00;0.00;;;;;16.50;71.09;100968.38;5139193;27;46130;-79
2022/10/16 04:01:38;;;;;;;;;0.00;0.00;;;;;16.47;71.11;100965.06;5120410;27;45341;-78
2022/10/16 04:04:03;;;;;;;;;0.00;0.00;;;;;16.45;71.03;100966.00;5138121;27;60659;-79
2022/10/16 04:06:29;;;;;;;;;0.50;0.50;;;;;16.44;71.18;100966.06;5139125;27;45352;-79
2022/10/16 04:08:54;;;;;;;;;0.00;0.00;;;;;16.44;71.21;100969.53;5120253;27;46135;-80
2022/10/16 04:11:19;;;;;;;;;2.00;0.00;;;;;16.44;71.13;100973.97;5138989;27;45508;-79
2022/10/16 04:13:45;;;;;;;;;0.00;0.00;;;;;16.42;71.07;100986.31;5139084;27;45378;-79
2022/10/16 04:16:10;;;;;;;;;0.00;0.00;;;;;16.39;71.21;100989.09;5138775;27;45370;-79
2022/10/16 04:18:35;;;;;;;;;0.00;0.00;;;;;16.38;71.46;100988.25;5137425;27;75695;-80
2022/10/16 04:21:05;;;;;;;;;0.00;0.00;;;;;16.39;71.53;100989.09;5138611;27;45397;-79
2022/10/16 04:23:31;;;;;;;;;0.00;0.00;;;;;16.40;71.46;100991.66;5138850;27;45382;-79
2022/10/16 04:25:56;;;;;;;;;0.00;0.00;;;;;16.43;71.58;100993.25;5138692;27;45338;-79
2022/10/16 04:28:21;;;;;;;;;0.00;0.00;;;;;16.48;71.70;100996.53;5119029;27;74216;-79
2022/10/16 04:30:46;;;;;;;;;0.00;0.00;;;;;16.52;71.18;100999.84;5137715;27;71973;-79
2022/10/16 04:33:12;;;;;;;;;0.00;0.00;;;;;16.55;71.28;101010.22;5136841;27;60832;-79
2022/10/16 04:35:38;;;;;;;;;0.50;0.00;;;;;16.57;71.84;101018.88;5120046;27;45523;-79
2022/10/16 04:38:03;;;;;;;;;0.00;0.00;;;;;16.58;71.36;101017.94;5137515;27;62837;-79
2022/10/16 04:40:29;;;;;;;;;0.00;0.00;;;;;16.58;71.30;101026.66;5137402;27;73233;-80
2022/10/16 04:42:54;;;;;;;;;0.00;0.00;;;;;16.60;71.06;101024.81;5138533;27;45322;-79
2022/10/16 04:45:19;;;;;;;;;0.00;0.00;;;;;16.62;71.04;101028.22;5138165;27;48220;-79
2022/10/16 04:47:45;;;;;;;;;0.00;0.00;;;;;16.69;71.73;101033.16;5137461;27;58913;-79
2022/10/16 04:50:10;;;;;;;;;0.00;0.00;;;;;16.70;71.16;101038.34;5137286;27;73297;-79
2022/10/16 04:52:36;;;;;;;;;0.00;0.00;;;;;16.73;71.15;101042.59;5138457;27;45415;-80
2022/10/16 04:55:02;;;;;;;;;0.75;0.00;;;;;16.73;71.04;101051.31;5137416;27;66347;-80
2022/10/16 04:57:28;;;;;;;;;0.00;0.00;;;;;16.74;71.02;101049.56;5119518;27;45415;-79
2022/10/16 04:59:54;;;;;;;;;0.00;0.00;;;;;16.74;70.80;101041.69;5119724;27;45577;-79
2022/10/16 05:02:19;;;;;;;;;0.00;0.00;;;;;16.73;70.93;101040.81;5137196;27;59066;-79
2022/10/16 05:04:44;;;;;;;;;1.50;0.00;;;;;16.77;71.24;101057.28;5137195;27;68432;-79
2022/10/16 05:07:10;;;;;;;;;1.00;0.00;;;;;16.81;70.90;101061.50;5137006;27;70236;-80
2022/10/16 05:09:35;;;;;;;;;0.00;0.00;;;;;16.80;70.69;101054.50;5137517;27;57951;-79
2022/10/16 05:12:00;;;;;;;;;0.00;0.00;;;;;16.84;71.29;101063.97;5137573;27;57201;-79
2022/10/16 05:14:26;;;;;;;;;0.00;0.00;;;;;16.85;70.69;101057.81;5138002;27;45616;-79
2022/10/16 05:16:51;;;;;;;;;0.00;0.00;;;;;16.89;71.11;101055.88;5137359;27;46976;-79
2022/10/16 05:19:17;;;;;;;;;0.00;0.00;;;;;16.88;71.12;101062.88;5137905;27;45351;-79
2022/10/16 05:21:42;;;;;;;;;0.00;0.00;;;;;16.86;71.14;101079.69;5137007;27;64905;-79
2022/10/16 05:24:07;;;;;;;;;0.00;0.00;;;;;16.82;70.86;101085.06;5137865;27;48306;-79
2022/10/16 05:26:32;;;;;;;;;0.00;0.00;;;;;16.81;70.90;101093.03;5136685;27;72930;-79
2022/10/16 05:28:58;;;;;;;;;0.25;0.00;;;;;16.82;71.47;101092.09;5118194;27;73438;-79
2022/10/16 05:31:23;;;;;;;;;0.00;0.00;;;;;16.81;70.86;101087.78;5136946;27;59931;-80
2022/10/16 05:33:48;;;;;;;;;0.00;0.00;;;;;16.80;71.07;101086.06;5118204;27;68791;-80
2022/10/16 05:36:14;;;;;;;;;0.00;0.00;;;;;16.76;70.81;101077.47;5137465;27;46804;-80
2022/10/16 05:38:40;;;;;;;;;0.00;0.00;;;;;16.71;71.09;101074.22;5137333;27;45357;-80
2022/10/16 05:41:05;;;;;;;;;0.00;0.00;;;;;16.70;71.10;101072.53;5137874;27;45315;-80
2022/10/16 05:43:31;;;;;;;;;0.00;0.00;;;;;16.67;71.08;101079.72;5137755;27;45293;-80
2022/10/16 05:46:02;;;;;;;;;0.00;0.00;;;;;16.63;70.93;101076.38;5139749;27;68158;-80
2022/10/16 05:48:28;;;;;;;;;0.00;0.00;;;;;16.63;71.72;101068.50;5141375;27;45409;-80
2022/10/16 05:51:07;;;;;;;;;0.25;0.00;;;;;16.67;71.76;101079.72;5141268;27;45477;-79
2022/10/16 05:53:34;;;;;;;;;0.00;0.00;;;;;16.70;71.87;101075.16;5122586;27;45328;-79
2022/10/16 05:56:00;;;;;;;;;0.00;0.00;;;;;16.72;71.63;101082.97;5140898;27;46659;-79
2022/10/16 05:58:28;;;;;;;;;0.00;0.00;;;;;16.73;71.99;101085.50;5122360;27;45333;-79
2022/10/16 06:00:59;;;;;;;;;0.00;0.00;;;;;16.73;71.91;101088.13;5122601;27;45393;-80
2022/10/16 06:03:24;;;;;;;;;0.00;0.00;;;;;16.71;71.77;101097.03;5122504;27;45595;-80
2022/10/16 06:05:50;;;;;;;;;0.00;0.00;;;;;16.71;72.03;101092.59;5140869;27;47344;-79
2022/10/16 06:08:15;;;;;;;;;1.00;0.00;;;;;16.70;71.98;101090.94;5140824;27;45275;-80
2022/10/16 06:10:41;;;;;;;;;0.00;0.00;;;;;16.64;71.67;101086.81;5140726;27;49612;-80
2022/10/16 06:13:06;;;;;;;;;0.00;0.00;;;;;16.62;72.13;101082.53;5122078;27;45418;-80
2022/10/16 06:15:31;;;;;;;;;0.50;0.00;;;;;16.57;71.69;101090.66;5139710;27;70693;-80
2022/10/16 06:17:56;;;;;;;;;0.50;0.50;;;;;16.53;72.15;101088.25;5139811;27;70473;-80
2022/10/16 06:20:22;;;;;;;;;0.00;0.00;;;;;16.50;71.96;101086.63;5139529;27;65378;-79
2022/10/16 06:22:47;;;;;;;;;0.00;0.00;;;;;16.50;72.50;101083.16;5121293;27;66634;-80
2022/10/16 06:25:12;;;;;;;;;0.00;0.00;;;;;16.49;71.89;101086.69;5140467;27;47095;-80
2022/10/16 06:27:40;;;;;;;;;0.00;0.00;;;;;16.42;72.21;101080.91;5139993;27;45312;-79
2022/10/16 06:30:09;;;;;;;;;1.00;1.00;;;;;16.37;72.02;101078.47;5140581;27;45342;-79
2022/10/16 06:32:35;;;;;;;;;0.50;0.00;;;;;16.31;71.99;101073.53;5122376;27;45268;-79
2022/10/16 06:35:00;;;;;;;;;0.00;0.00;;;;;16.22;71.94;101087.94;5139062;27;75290;-78
2022/10/16 06:37:26;;;;;;;;;2.75;0.50;;;;;16.20;72.46;101102.91;5138919;27;72979;-78
2022/10/16 06:39:52;;;;;;;;;0.50;0.50;;;;;16.16;72.64;101118.91;5121832;27;45387;-79
2022/10/16 06:42:18;;;;;;;;;2.00;1.00;;;;;16.11;72.55;101116.47;5121673;27;45313;-79
2022/10/16 06:44:43;;;;;;;;;1.25;0.00;;;;;16.13;72.49;101116.41;5140323;27;45378;-78
2022/10/16 06:47:09;;;;;;;;;1.00;0.00;;;;;16.14;72.70;101120.72;5139495;27;61732;-79
2022/10/16 06:49:35;;;;;;;;;0.25;0.00;;;;;16.15;72.96;101125.06;5121741;27;45371;-79
2022/10/16 06:52:01;;;;;;;;;0.00;0.00;;;;;16.17;72.65;101104.84;5140213;27;45393;-78
2022/10/16 06:54:26;;;;;;;;;0.00;0.00;;;;;16.22;72.92;101110.72;5121630;27;45625;-77
2022/10/16 06:56:54;;;;;;;;;1.00;0.00;;;;;16.28;72.88;101120.94;5139184;27;45474;-78
2022/10/16 06:59:19;;;;;;;;;0.00;0.00;;;;;16.37;72.67;101119.66;5140439;27;45383;-78
2022/10/16 07:01:45;;;;;;;;;0.00;0.00;;;;;16.45;72.99;101121.03;5140167;27;45215;-78
2022/10/16 07:04:10;;;;;;;;;0.50;0.00;;;;;16.53;72.86;101135.53;5139438;27;64123;-78
2022/10/16 07:06:35;;;;;;;;;2.00;0.00;;;;;16.57;72.66;101139.75;5120335;27;70666;-78
2022/10/16 07:09:03;;;;;;;;;0.00;0.00;;;;;16.62;72.33;101130.72;5140060;27;45463;-77
2022/10/16 07:11:28;;;;;;;;;0.00;0.00;;;;;16.66;72.39;101136.69;5139693;27;45452;-78
2022/10/16 07:13:54;;;;;;;;;0.00;0.00;;;;;16.65;72.54;101137.59;5120157;27;75098;-78
2022/10/16 07:16:24;;;;;;;;;0.00;0.00;;;;;16.64;72.38;101149.03;5103554;27;52998;-79
2022/10/16 07:18:51;;;;;;;;;0.00;0.00;;;;;16.60;72.11;101161.50;5121207;27;45287;-78
2022/10/16 07:21:20;;;;;;;;;0.00;0.00;;;;;16.62;72.66;101154.38;5121076;27;45548;-77
2022/10/16 07:23:50;;;;;;;;;1.00;0.00;;;;;16.68;72.51;101155.00;5139838;27;45364;-78
2022/10/16 07:26:16;;;;;;;;;0.00;0.00;;;;;16.72;72.24;101148.69;5139315;27;45510;-79
2022/10/16 07:28:42;;;;;;;;;0.00;0.00;;;;;16.73;72.29;101147.75;5139163;27;57217;-77
2022/10/16 07:31:11;;;;;;;;;1.00;1.00;;;;;16.76;72.21;101160.75;5121239;27;45431;-79
2022/10/16 07:33:38;;;;;;;;;0.25;0.25;;;;;16.84;72.30;101161.25;5120397;27;47003;-79
2022/10/16 07:36:06;;;;;;;;;1.00;1.00;;;;;16.96;72.56;101170.34;5120618;27;45653;-78
2022/10/16 07:38:31;;;;;;;;;0.00;0.00;;;;;17.12;71.88;101175.69;5139386;27;45279;-79
2022/10/16 07:41:01;;;;;;;;;0.00;0.00;;;;;17.22;70.98;101175.16;5138285;27;65971;-78
2022/10/16 07:43:27;;;;;;;;;0.50;0.50;;;;;17.31;70.83;101180.88;5120618;27;47489;-78
2022/10/16 07:45:52;;;;;;;;;1.00;0.25;;;;;17.35;70.90;101179.81;5139218;27;45652;-79
2022/10/16 07:48:18;;;;;;;;;0.75;0.00;;;;;17.38;70.64;101175.25;5139290;27;46165;-78
2022/10/16 07:50:44;;;;;;;;;1.00;1.00;;;;;17.47;70.48;101178.34;5139312;27;45322;-77
2022/10/16 07:53:10;;;;;;;;;0.00;0.00;;;;;17.57;70.17;101177.78;5138335;27;75524;-79
2022/10/16 07:55:36;;;;;;;;;0.50;0.00;;;;;17.68;70.00;101171.97;5120160;27;45323;-79
2022/10/16 07:58:01;;;;;;;;;2.00;1.00;;;;;17.75;69.95;101180.38;5139174;27;45357;-79
2022/10/16 08:00:26;;;;;;;;;0.00;0.00;;;;;17.78;69.34;101188.13;5138415;27;61660;-78
2022/10/16 08:02:52;;;;;;;;;1.75;1.00;;;;;17.76;69.25;101192.63;5138192;27;64771;-78
2022/10/16 08:05:17;;;;;;;;;0.00;0.00;;;;;17.71;68.81;101190.22;5138177;27;70212;-78
2022/10/16 08:07:43;;;;;;;;;1.00;1.00;;;;;17.70;69.28;101201.72;5138064;27;45442;-79
2022/10/16 08:10:18;;;;;;;;;0.00;0.00;;;;;17.75;69.43;101211.97;5138326;27;52274;-79
2022/10/16 08:12:44;;;;;;;;;1.00;0.25;;;;;17.79;69.21;101224.06;5120444;27;46416;-78
2022/10/16 08:15:10;;;;;;;;;0.00;0.00;;;;;17.88;69.79;101233.31;5138916;27;45438;-78
2022/10/16 08:17:35;;;;;;;;;1.75;0.00;;;;;17.97;69.24;101225.78;5138838;27;45355;-78
2022/10/16 08:20:01;;;;;;;;;0.25;0.25;;;;;18.03;68.72;101229.03;5137998;27;60748;-78
2022/10/16 08:22:26;;;;;;;;;0.00;0.00;;;;;18.08;68.80;101212.03;5138059;27;46193;-78
2022/10/16 08:24:52;;;;;;;;;1.00;0.00;;;;;18.16;68.85;101199.34;5137883;27;45427;-78
2022/10/16 08:27:17;;;;;;;;;0.00;0.00;;;;;18.23;68.18;101193.72;5118841;27;59824;-79
2022/10/16 08:29:42;;;;;;;;;0.00;0.00;;;;;18.27;67.85;101196.09;5137133;27;67037;-78
2022/10/16 08:32:08;;;;;;;;;0.00;0.00;;;;;18.32;68.08;101207.25;5118526;27;69346;-79
2022/10/16 08:34:33;;;;;;;;;0.00;0.00;;;;;18.38;68.03;101219.25;5118018;27;71344;-79
2022/10/16 08:36:58;;;;;;;;;2.00;2.00;;;;;18.36;67.41;101229.84;5136732;27;68551;-79
2022/10/16 08:39:24;;;;;;;;;3.25;3.00;;;;;18.31;66.93;101220.50;5118051;27;61737;-78
2022/10/16 08:42:17;;;;;;;;;2.00;1.00;;;;;18.29;67.21;101222.38;5137675;27;46085;-78
2022/10/16 08:45:18;;;;;;;;;2.75;2.75;;;;;18.28;66.96;101231.22;5137580;27;45786;-79
2022/10/16 08:48:15;;;;;;;;;2.75;2.00;;;;;18.23;67.06;101223.56;5053286;28;45392;-79
2022/10/16 08:50:41;;;;;;;;;2.50;1.00;;;;;18.23;67.36;101220.91;5053324;28;45488;-79
2022/10/16 08:53:13;;;;;;;;;1.75;1.00;;;;;18.24;67.19;101221.75;5053196;28;45880;-79
2022/10/16 08:55:42;;;;;;;;;1.00;1.00;;;;;18.28;67.37;101226.78;5053287;28;45891;-79
2022/10/16 08:58:19;;;;;;;;;5.00;3.00;;;;;18.41;67.59;101236.69;5053343;28;45313;-79
2022/10/16 09:00:51;;;;;;;;;1.75;1.75;;;;;18.47;67.13;101229.28;5036521;28;45521;-79
2022/10/16 09:03:28;;;;;;;;;1.00;1.00;;;;;18.50;67.45;101231.75;5053329;28;46594;-78
2022/10/16 09:05:58;;;;;;;;;1.00;1.00;;;;;18.53;66.74;101238.66;5053471;28;45329;-78
2022/10/16 09:08:30;;;;;;;;;1.00;1.00;;;;;18.60;67.14;101247.09;5053484;28;45469;-79
2022/10/16 09:11:04;;;;;;;;;1.00;1.00;;;;;18.72;66.73;101247.25;5053801;28;45468;-78
2022/10/16 09:13:37;;;;;;;;;1.75;1.75;;;;;18.88;66.49;101236.72;5037467;28;46263;-78
2022/10/16 09:16:24;;;;;;;;;1.25;1.00;;;;;18.99;66.30;101233.50;5053277;28;45741;-79
2022/10/16 09:19:03;;;;;;;;;1.00;1.00;;;;;19.00;65.79;101223.78;5052592;28;45301;-78
2022/10/16 09:21:36;;;;;;;;;2.50;1.75;;;;;18.99;65.87;101232.66;5052547;28;45412;-78
2022/10/16 09:24:22;;;;;;;;;2.50;0.00;;;;;19.09;65.69;101225.91;5106582;27;45379;-76
2022/10/16 09:26:47;;;;;;;;;2.00;2.00;;;;;19.16;65.56;101227.25;5118266;27;45461;-78
2022/10/16 09:29:14;;;;;;;;;5.00;3.50;;;;;19.27;65.40;101237.19;5136095;27;68309;-78
2022/10/16 09:31:40;;;;;;;;;4.00;1.25;;;;;19.39;64.61;101238.28;5118303;27;45626;-78
2022/10/16 09:34:08;;;;;;;;;1.75;1.75;;;;;19.49;64.82;101242.94;5118392;27;45466;-77
2022/10/16 09:36:41;;;;;;;;;2.75;2.50;;;;;19.66;64.97;101246.38;5117960;27;45651;-79
2022/10/16 09:39:11;;;;;;;;;2.75;2.00;;;;;19.81;64.56;101237.56;5118756;27;45423;-79
2022/10/16 09:41:39;;;;;;;;;2.00;2.00;;;;;19.88;63.87;101246.00;5118582;27;45430;-78
2022/10/16 09:44:26;;;;;;;;;4.00;2.00;;;;;19.84;64.00;101250.59;5101127;27;45782;-76
2022/10/16 09:47:21;;;;;;;;;2.50;2.50;;;;;19.84;64.00;101245.31;5136520;27;45715;-76
2022/10/16 09:49:55;;;;;;;;;2.00;2.00;;;;;19.89;64.28;101248.53;5100069;27;45423;-76
2022/10/16 09:52:21;;;;;;;;;1.25;1.00;;;;;19.99;63.42;101248.84;5137190;27;45467;-76
2022/10/16 09:55:16;;;;;;;;;1.50;1.50;;;;;20.01;63.65;101246.09;5137382;27;47439;-77
2022/10/16 09:57:52;;;;;;;;;2.25;2.00;;;;;20.07;63.47;101241.28;5119687;27;45372;-76
2022/10/16 10:00:18;;;;;;;;;2.50;1.00;;;;;20.17;63.21;101238.94;5137412;27;45484;-76
2022/10/16 10:02:44;;;;;;;;;2.00;2.00;;;;;20.28;62.01;101232.97;5137378;27;45358;-76
2022/10/16 10:05:21;;;;;;;;;3.75;3.00;;;;;20.34;62.21;101227.31;5117603;27;66362;-75
2022/10/16 10:07:55;;;;;;;;;4.00;2.25;;;;;20.38;62.80;101225.34;5118641;27;45356;-76
2022/10/16 10:10:23;;;;;;;;;4.00;1.75;;;;;20.40;62.62;101226.09;5125173;27;45431;-77
2022/10/16 10:12:48;;;;;;;;;3.00;3.00;;;;;20.45;61.99;101227.50;5107815;27;45482;-76
2022/10/16 10:15:21;;;;;;;;;3.00;3.00;;;;;20.56;61.15;101221.53;5100317;27;74178;-75
2022/10/16 10:17:57;;;;;;;;;2.00;2.00;;;;;20.63;62.26;101214.06;5118745;27;45729;-75
2022/10/16 10:20:40;;;;;;;;;3.00;2.00;;;;;20.80;61.77;101215.63;5134775;27;45365;-76
2022/10/16 10:23:23;;;;;;;;;3.00;3.00;;;;;21.02;61.19;101218.63;5116410;27;45305;-74
2022/10/16 10:25:57;;;;;;;;;2.00;2.00;;;;;21.19;59.66;101217.50;5108848;27;45445;-75
2022/10/16 10:28:25;;;;;;;;;3.00;2.75;;;;;21.16;58.86;101219.50;5136877;27;45640;-77
2022/10/16 10:31:07;;;;;;;;;3.00;2.00;;;;;21.15;59.37;101221.28;5118315;27;45491;-75
2022/10/16 10:33:48;;;;;;;;;2.00;2.00;;;;;21.21;60.10;101215.59;5119678;27;45363;-76
2022/10/16 10:36:29;;;;;;;;;3.50;3.00;;;;;21.31;59.01;101218.47;5117878;27;46829;-75
2022/10/16 10:39:00;;;;;;;;;7.25;3.00;;;;;21.33;59.04;101219.22;5121673;27;45815;-74
2022/10/16 10:41:28;;;;;;;;;3.25;2.50;;;;;21.42;59.42;101210.66;5115424;27;45405;-76
2022/10/16 10:43:59;;;;;;;;;3.00;2.25;;;;;21.50;59.18;101219.94;5119358;27;45472;-76
2022/10/16 10:46:46;;;;;;;;;4.75;3.75;;;;;21.54;59.14;101210.81;5119169;27;46672;-76
2022/10/16 10:49:14;;;;;;;;;6.25;3.50;;;;;21.57;59.86;101203.50;5119116;27;45808;-76
2022/10/16 10:52:02;;;;;;;;;5.75;3.00;;;;;21.66;58.60;101202.06;5119482;27;45390;-76
2022/10/16 10:54:46;;;;;;;;;4.25;4.25;;;;;21.69;59.13;101195.69;5101028;27;45375;-76
2022/10/16 10:57:23;;;;;;;;;4.25;4.25;;;;;21.87;58.79;101190.91;5131342;27;46847;-76
2022/10/16 11:00:15;;;;;;;;;3.25;3.00;;;;;22.05;58.52;101189.63;5100784;27;45653;-75
2022/10/16 11:02:41;;;;;;;;;2.75;2.25;;;;;22.20;57.18;101190.38;5114782;27;45283;-77
2022/10/16 11:05:30;;;;;;;;;2.75;1.00;;;;;22.21;55.48;101187.59;5121128;27;45281;-76
2022/10/16 11:08:11;;;;;;;;;5.00;3.00;;;;;22.42;55.32;101182.59;5133629;27;45425;-76
2022/10/16 11:10:44;;;;;;;;;2.00;2.00;;;;;22.67;55.62;101188.78;5100063;27;45558;-75
2022/10/16 11:13:26;;;;;;;;;2.75;2.00;;;;;22.85;55.57;101189.25;5100936;27;45368;-75
2022/10/16 11:15:54;;;;;;;;;3.75;2.50;;;;;22.89;55.38;101188.03;5102242;27;45587;-75
2022/10/16 11:18:46;;;;;;;;;4.25;2.00;;;;;22.87;54.22;101191.78;5109594;27;46555;-76
2022/10/16 11:21:14;;;;;;;;;3.50;2.00;;;;;22.71;54.51;101178.78;5118246;27;46064;-75
2022/10/16 11:23:52;;;;;;;;;2.00;1.25;;;;;22.53;55.28;101180.97;5087538;27;45673;-76
2022/10/16 11:26:25;;;;;;;;;1.00;1.00;;;;;22.34;55.73;101192.91;5100656;27;45300;-76
2022/10/16 11:28:56;;;;;;;;;2.00;2.00;;;;;22.24;56.35;101194.50;5099991;27;46029;-76
2022/10/16 11:31:31;;;;;;;;;3.00;1.50;;;;;22.15;56.70;101188.03;5100408;27;45770;-76
2022/10/16 11:34:02;;;;;;;;;1.00;1.00;;;;;22.20;57.21;101191.19;5104563;27;45528;-75